sensor_id;sensor_type;location;lat;lon;timestamp;P1;durP1;ratioP1;P2;durP2;ratioP2
28086;SDS011;15392;48.912;8.380;2022-07-09T00:01:49;0.63;;;0.45;;
28086;SDS011;15392;48.912;8.380;2022-07-09T00:04:15;0.30;;;0.30;;
28086;SDS011;15392;48.912;8.380;2022-07-09T00:06:41;0.30;;;0.30;;
28086;SDS011;15392;48.912;8.380;2022-07-09T00:09:06;0.40;;;0.30;;
28086;SDS011;15392;48.912;8.380;2022-07-09T00:11:32;0.30;;;0.30;;
28086;SDS011;15392;48.912;8.380;2022-07-09T00:13:58;0.52;;;0.52;;
28086;SDS011;15392;48.912;8.380;2022-07-09T00:16:24;0.30;;;0.20;;
28086;SDS011;15392;48.912;8.380;2022-07-09T00:18:49;0.80;;;0.60;;
28086;SDS011;15392;48.912;8.380;2022-07-09T00:21:15;0.40;;;0.40;;
28086;SDS011;15392;48.912;8.380;2022-07-09T00:23:41;0.45;;;0.30;;
28086;SDS011;15392;48.912;8.380;2022-07-09T00:26:07;0.50;;;0.50;;
28086;SDS011;15392;48.912;8.380;2022-07-09T00:28:36;0.30;;;0.30;;
28086;SDS011;15392;48.912;8.380;2022-07-09T00:31:01;1.45;;;0.32;;
28086;SDS011;15392;48.912;8.380;2022-07-09T00:33:27;0.30;;;0.30;;
28086;SDS011;15392;48.912;8.380;2022-07-09T00:35:53;0.47;;;0.47;;
28086;SDS011;15392;48.912;8.380;2022-07-09T00:38:19;0.35;;;0.30;;
28086;SDS011;15392;48.912;8.380;2022-07-09T00:40:44;0.52;;;0.50;;
28086;SDS011;15392;48.912;8.380;2022-07-09T00:43:17;1.52;;;0.50;;
28086;SDS011;15392;48.912;8.380;2022-07-09T00:45:45;0.35;;;0.30;;
28086;SDS011;15392;48.912;8.380;2022-07-09T00:48:12;0.57;;;0.57;;
28086;SDS011;15392;48.912;8.380;2022-07-09T00:50:38;0.65;;;0.47;;
28086;SDS011;15392;48.912;8.380;2022-07-09T00:53:10;0.82;;;0.30;;
28086;SDS011;15392;48.912;8.380;2022-07-09T00:55:40;2.33;;;0.45;;
28086;SDS011;15392;48.912;8.380;2022-07-09T00:58:09;0.35;;;0.35;;
28086;SDS011;15392;48.912;8.380;2022-07-09T01:00:37;2.67;;;0.60;;
28086;SDS011;15392;48.912;8.380;2022-07-09T01:03:03;0.38;;;0.38;;
28086;SDS011;15392;48.912;8.380;2022-07-09T01:05:29;1.45;;;0.40;;
28086;SDS011;15392;48.912;8.380;2022-07-09T01:08:04;0.68;;;0.52;;
28086;SDS011;15392;48.912;8.380;2022-07-09T01:10:32;0.55;;;0.45;;
28086;SDS011;15392;48.912;8.380;2022-07-09T01:13:01;0.32;;;0.32;;
28086;SDS011;15392;48.912;8.380;2022-07-09T01:15:29;0.52;;;0.50;;
28086;SDS011;15392;48.912;8.380;2022-07-09T01:17:54;0.38;;;0.38;;
28086;SDS011;15392;48.912;8.380;2022-07-09T01:20:22;0.60;;;0.45;;
28086;SDS011;15392;48.912;8.380;2022-07-09T01:22:51;0.40;;;0.40;;
28086;SDS011;15392;48.912;8.380;2022-07-09T01:25:18;0.55;;;0.55;;
28086;SDS011;15392;48.912;8.380;2022-07-09T01:27:47;0.45;;;0.45;;
28086;SDS011;15392;48.912;8.380;2022-07-09T01:30:26;0.40;;;0.40;;
28086;SDS011;15392;48.912;8.380;2022-07-09T01:32:53;1.20;;;0.50;;
28086;SDS011;15392;48.912;8.380;2022-07-09T01:35:20;0.50;;;0.30;;
28086;SDS011;15392;48.912;8.380;2022-07-09T01:37:49;0.40;;;0.40;;
28086;SDS011;15392;48.912;8.380;2022-07-09T01:40:15;0.50;;;0.40;;
28086;SDS011;15392;48.912;8.380;2022-07-09T01:42:41;0.47;;;0.40;;
28086;SDS011;15392;48.912;8.380;2022-07-09T01:45:07;0.35;;;0.35;;
28086;SDS011;15392;48.912;8.380;2022-07-09T01:47:34;0.55;;;0.50;;
28086;SDS011;15392;48.912;8.380;2022-07-09T01:50:00;1.25;;;0.55;;
28086;SDS011;15392;48.912;8.380;2022-07-09T01:52:26;0.52;;;0.50;;
28086;SDS011;15392;48.912;8.380;2022-07-09T01:54:53;0.60;;;0.50;;
28086;SDS011;15392;48.912;8.380;2022-07-09T01:57:19;0.40;;;0.40;;
28086;SDS011;15392;48.912;8.380;2022-07-09T01:59:45;0.40;;;0.40;;
28086;SDS011;15392;48.912;8.380;2022-07-09T02:02:10;0.43;;;0.43;;
28086;SDS011;15392;48.912;8.380;2022-07-09T02:04:36;0.65;;;0.40;;
28086;SDS011;15392;48.912;8.380;2022-07-09T02:07:02;0.80;;;0.70;;
28086;SDS011;15392;48.912;8.380;2022-07-09T02:09:28;0.95;;;0.60;;
28086;SDS011;15392;48.912;8.380;2022-07-09T02:11:54;0.50;;;0.50;;
28086;SDS011;15392;48.912;8.380;2022-07-09T02:14:19;0.38;;;0.38;;
28086;SDS011;15392;48.912;8.380;2022-07-09T02:16:45;0.50;;;0.50;;
28086;SDS011;15392;48.912;8.380;2022-07-09T02:19:11;0.45;;;0.45;;
28086;SDS011;15392;48.912;8.380;2022-07-09T02:21:37;0.57;;;0.57;;
28086;SDS011;15392;48.912;8.380;2022-07-09T02:24:02;0.40;;;0.40;;
28086;SDS011;15392;48.912;8.380;2022-07-09T02:26:31;0.47;;;0.43;;
28086;SDS011;15392;48.912;8.380;2022-07-09T02:28:57;0.38;;;0.38;;
28086;SDS011;15392;48.912;8.380;2022-07-09T02:31:24;0.40;;;0.40;;
28086;SDS011;15392;48.912;8.380;2022-07-09T02:33:51;0.45;;;0.45;;
28086;SDS011;15392;48.912;8.380;2022-07-09T02:36:17;0.75;;;0.40;;
28086;SDS011;15392;48.912;8.380;2022-07-09T02:38:44;0.43;;;0.32;;
28086;SDS011;15392;48.912;8.380;2022-07-09T02:41:10;0.60;;;0.47;;
28086;SDS011;15392;48.912;8.380;2022-07-09T02:43:35;0.40;;;0.40;;
28086;SDS011;15392;48.912;8.380;2022-07-09T02:46:01;0.60;;;0.40;;
28086;SDS011;15392;48.912;8.380;2022-07-09T02:48:29;0.45;;;0.45;;
28086;SDS011;15392;48.912;8.380;2022-07-09T02:50:55;1.40;;;0.40;;
28086;SDS011;15392;48.912;8.380;2022-07-09T02:53:20;0.40;;;0.40;;
28086;SDS011;15392;48.912;8.380;2022-07-09T02:55:46;0.30;;;0.30;;
28086;SDS011;15392;48.912;8.380;2022-07-09T02:58:12;0.80;;;0.60;;
28086;SDS011;15392;48.912;8.380;2022-07-09T03:00:39;0.50;;;0.40;;
28086;SDS011;15392;48.912;8.380;2022-07-09T03:03:06;0.52;;;0.52;;
28086;SDS011;15392;48.912;8.380;2022-07-09T03:05:32;0.60;;;0.60;;
28086;SDS011;15392;48.912;8.380;2022-07-09T03:07:58;0.60;;;0.60;;
28086;SDS011;15392;48.912;8.380;2022-07-09T03:10:24;1.75;;;0.50;;
28086;SDS011;15392;48.912;8.380;2022-07-09T03:12:50;0.52;;;0.52;;
28086;SDS011;15392;48.912;8.380;2022-07-09T03:15:16;1.95;;;0.50;;
28086;SDS011;15392;48.912;8.380;2022-07-09T03:17:43;0.22;;;0.22;;
28086;SDS011;15392;48.912;8.380;2022-07-09T03:20:09;0.50;;;0.50;;
28086;SDS011;15392;48.912;8.380;2022-07-09T03:22:36;0.60;;;0.52;;
28086;SDS011;15392;48.912;8.380;2022-07-09T03:25:04;0.38;;;0.38;;
28086;SDS011;15392;48.912;8.380;2022-07-09T03:27:30;0.73;;;0.50;;
28086;SDS011;15392;48.912;8.380;2022-07-09T03:29:57;0.30;;;0.30;;
28086;SDS011;15392;48.912;8.380;2022-07-09T03:32:30;1.80;;;0.60;;
28086;SDS011;15392;48.912;8.380;2022-07-09T03:34:58;0.82;;;0.40;;
28086;SDS011;15392;48.912;8.380;2022-07-09T03:37:25;1.73;;;0.47;;
28086;SDS011;15392;48.912;8.380;2022-07-09T03:39:51;0.55;;;0.30;;
28086;SDS011;15392;48.912;8.380;2022-07-09T03:42:19;0.30;;;0.30;;
28086;SDS011;15392;48.912;8.380;2022-07-09T03:44:48;0.30;;;0.30;;
28086;SDS011;15392;48.912;8.380;2022-07-09T03:47:17;0.45;;;0.45;;
28086;SDS011;15392;48.912;8.380;2022-07-09T03:49:46;0.68;;;0.40;;
28086;SDS011;15392;48.912;8.380;2022-07-09T03:52:12;0.32;;;0.30;;
28086;SDS011;15392;48.912;8.380;2022-07-09T03:54:38;0.60;;;0.60;;
28086;SDS011;15392;48.912;8.380;2022-07-09T03:57:10;0.60;;;0.60;;
28086;SDS011;15392;48.912;8.380;2022-07-09T03:59:36;0.50;;;0.50;;
28086;SDS011;15392;48.912;8.380;2022-07-09T04:02:08;0.60;;;0.60;;
28086;SDS011;15392;48.912;8.380;2022-07-09T04:04:34;0.50;;;0.50;;
28086;SDS011;15392;48.912;8.380;2022-07-09T04:07:06;1.05;;;0.43;;
28086;SDS011;15392;48.912;8.380;2022-07-09T04:09:35;0.43;;;0.40;;
28086;SDS011;15392;48.912;8.380;2022-07-09T04:12:02;0.63;;;0.50;;
28086;SDS011;15392;48.912;8.380;2022-07-09T04:14:38;1.00;;;0.45;;
28086;SDS011;15392;48.912;8.380;2022-07-09T04:17:04;0.50;;;0.50;;
28086;SDS011;15392;48.912;8.380;2022-07-09T04:19:33;0.55;;;0.55;;
28086;SDS011;15392;48.912;8.380;2022-07-09T04:22:04;0.70;;;0.70;;
28086;SDS011;15392;48.912;8.380;2022-07-09T04:24:34;0.65;;;0.65;;
28086;SDS011;15392;48.912;8.380;2022-07-09T04:27:00;0.57;;;0.57;;
28086;SDS011;15392;48.912;8.380;2022-07-09T04:29:32;0.40;;;0.40;;
28086;SDS011;15392;48.912;8.380;2022-07-09T04:31:58;0.68;;;0.60;;
28086;SDS011;15392;48.912;8.380;2022-07-09T04:34:35;0.77;;;0.55;;
28086;SDS011;15392;48.912;8.380;2022-07-09T04:37:04;0.50;;;0.50;;
28086;SDS011;15392;48.912;8.380;2022-07-09T04:39:42;0.40;;;0.40;;
28086;SDS011;15392;48.912;8.380;2022-07-09T04:42:16;0.47;;;0.47;;
28086;SDS011;15392;48.912;8.380;2022-07-09T04:44:54;0.40;;;0.40;;
28086;SDS011;15392;48.912;8.380;2022-07-09T04:47:26;0.45;;;0.45;;
28086;SDS011;15392;48.912;8.380;2022-07-09T04:49:58;0.40;;;0.40;;
28086;SDS011;15392;48.912;8.380;2022-07-09T04:52:27;0.70;;;0.50;;
28086;SDS011;15392;48.912;8.380;2022-07-09T04:54:58;0.47;;;0.47;;
28086;SDS011;15392;48.912;8.380;2022-07-09T04:57:28;0.50;;;0.50;;
28086;SDS011;15392;48.912;8.380;2022-07-09T05:00:01;0.73;;;0.73;;
28086;SDS011;15392;48.912;8.380;2022-07-09T05:02:38;0.60;;;0.60;;
28086;SDS011;15392;48.912;8.380;2022-07-09T05:05:04;1.50;;;0.75;;
28086;SDS011;15392;48.912;8.380;2022-07-09T05:07:32;0.85;;;0.68;;
28086;SDS011;15392;48.912;8.380;2022-07-09T05:09:59;1.00;;;0.50;;
28086;SDS011;15392;48.912;8.380;2022-07-09T05:12:36;0.80;;;0.70;;
28086;SDS011;15392;48.912;8.380;2022-07-09T05:15:08;0.50;;;0.50;;
28086;SDS011;15392;48.912;8.380;2022-07-09T05:17:35;0.40;;;0.40;;
28086;SDS011;15392;48.912;8.380;2022-07-09T05:20:09;0.50;;;0.50;;
28086;SDS011;15392;48.912;8.380;2022-07-09T05:22:41;0.50;;;0.50;;
28086;SDS011;15392;48.912;8.380;2022-07-09T05:25:10;0.60;;;0.60;;
28086;SDS011;15392;48.912;8.380;2022-07-09T05:27:45;0.60;;;0.60;;
28086;SDS011;15392;48.912;8.380;2022-07-09T05:30:15;0.77;;;0.50;;
28086;SDS011;15392;48.912;8.380;2022-07-09T05:32:47;0.70;;;0.70;;
28086;SDS011;15392;48.912;8.380;2022-07-09T05:35:19;0.68;;;0.60;;
28086;SDS011;15392;48.912;8.380;2022-07-09T05:37:45;0.60;;;0.60;;
28086;SDS011;15392;48.912;8.380;2022-07-09T05:40:16;0.70;;;0.40;;
28086;SDS011;15392;48.912;8.380;2022-07-09T05:42:42;0.60;;;0.60;;
28086;SDS011;15392;48.912;8.380;2022-07-09T05:45:08;0.95;;;0.57;;
28086;SDS011;15392;48.912;8.380;2022-07-09T05:47:35;0.60;;;0.60;;
28086;SDS011;15392;48.912;8.380;2022-07-09T05:50:04;0.47;;;0.47;;
28086;SDS011;15392;48.912;8.380;2022-07-09T05:52:36;1.73;;;0.68;;
28086;SDS011;15392;48.912;8.380;2022-07-09T05:55:04;0.75;;;0.50;;
28086;SDS011;15392;48.912;8.380;2022-07-09T05:57:33;0.73;;;0.73;;
28086;SDS011;15392;48.912;8.380;2022-07-09T06:00:08;0.60;;;0.60;;
28086;SDS011;15392;48.912;8.380;2022-07-09T06:02:38;0.50;;;0.50;;
28086;SDS011;15392;48.912;8.380;2022-07-09T06:05:07;0.40;;;0.40;;
28086;SDS011;15392;48.912;8.380;2022-07-09T06:07:36;0.52;;;0.52;;
28086;SDS011;15392;48.912;8.380;2022-07-09T06:10:02;0.65;;;0.63;;
28086;SDS011;15392;48.912;8.380;2022-07-09T06:12:28;1.25;;;0.50;;
28086;SDS011;15392;48.912;8.380;2022-07-09T06:14:54;0.60;;;0.60;;
28086;SDS011;15392;48.912;8.380;2022-07-09T06:17:23;0.52;;;0.52;;
28086;SDS011;15392;48.912;8.380;2022-07-09T06:19:49;0.65;;;0.50;;
28086;SDS011;15392;48.912;8.380;2022-07-09T06:22:15;0.40;;;0.40;;
28086;SDS011;15392;48.912;8.380;2022-07-09T06:24:41;0.70;;;0.50;;
28086;SDS011;15392;48.912;8.380;2022-07-09T06:27:06;1.65;;;0.60;;
28086;SDS011;15392;48.912;8.380;2022-07-09T06:29:32;0.65;;;0.63;;
28086;SDS011;15392;48.912;8.380;2022-07-09T06:31:58;0.93;;;0.93;;
28086;SDS011;15392;48.912;8.380;2022-07-09T06:34:29;1.83;;;0.70;;
28086;SDS011;15392;48.912;8.380;2022-07-09T06:36:55;0.70;;;0.70;;
28086;SDS011;15392;48.912;8.380;2022-07-09T06:39:20;0.52;;;0.52;;
28086;SDS011;15392;48.912;8.380;2022-07-09T06:42:05;0.60;;;0.60;;
28086;SDS011;15392;48.912;8.380;2022-07-09T06:44:32;0.50;;;0.50;;
28086;SDS011;15392;48.912;8.380;2022-07-09T06:47:01;0.75;;;0.55;;
28086;SDS011;15392;48.912;8.380;2022-07-09T06:49:27;0.88;;;0.77;;
28086;SDS011;15392;48.912;8.380;2022-07-09T06:51:53;0.57;;;0.57;;
28086;SDS011;15392;48.912;8.380;2022-07-09T06:54:19;0.55;;;0.55;;
28086;SDS011;15392;48.912;8.380;2022-07-09T06:56:45;0.40;;;0.40;;
28086;SDS011;15392;48.912;8.380;2022-07-09T06:59:11;0.60;;;0.60;;
28086;SDS011;15392;48.912;8.380;2022-07-09T07:01:38;0.60;;;0.40;;
28086;SDS011;15392;48.912;8.380;2022-07-09T07:04:04;0.68;;;0.68;;
28086;SDS011;15392;48.912;8.380;2022-07-09T07:06:30;0.95;;;0.68;;
28086;SDS011;15392;48.912;8.380;2022-07-09T07:08:56;0.60;;;0.60;;
28086;SDS011;15392;48.912;8.380;2022-07-09T07:11:22;0.60;;;0.60;;
28086;SDS011;15392;48.912;8.380;2022-07-09T07:13:48;0.93;;;0.47;;
28086;SDS011;15392;48.912;8.380;2022-07-09T07:16:13;0.80;;;0.68;;
28086;SDS011;15392;48.912;8.380;2022-07-09T07:18:39;0.60;;;0.60;;
28086;SDS011;15392;48.912;8.380;2022-07-09T07:21:05;0.50;;;0.50;;
28086;SDS011;15392;48.912;8.380;2022-07-09T07:23:31;0.40;;;0.40;;
28086;SDS011;15392;48.912;8.380;2022-07-09T07:26:00;0.70;;;0.60;;
28086;SDS011;15392;48.912;8.380;2022-07-09T07:28:29;0.43;;;0.43;;
28086;SDS011;15392;48.912;8.380;2022-07-09T07:30:55;0.40;;;0.40;;
28086;SDS011;15392;48.912;8.380;2022-07-09T07:33:44;0.60;;;0.60;;
28086;SDS011;15392;48.912;8.380;2022-07-09T07:36:09;1.10;;;0.55;;
28086;SDS011;15392;48.912;8.380;2022-07-09T07:38:35;0.50;;;0.40;;
28086;SDS011;15392;48.912;8.380;2022-07-09T07:41:01;0.70;;;0.43;;
28086;SDS011;15392;48.912;8.380;2022-07-09T07:43:27;0.50;;;0.50;;
28086;SDS011;15392;48.912;8.380;2022-07-09T07:45:53;0.88;;;0.50;;
28086;SDS011;15392;48.912;8.380;2022-07-09T07:48:19;0.75;;;0.45;;
28086;SDS011;15392;48.912;8.380;2022-07-09T07:50:44;0.63;;;0.60;;
28086;SDS011;15392;48.912;8.380;2022-07-09T07:53:10;0.60;;;0.50;;
28086;SDS011;15392;48.912;8.380;2022-07-09T07:55:36;0.60;;;0.60;;
28086;SDS011;15392;48.912;8.380;2022-07-09T07:58:02;2.58;;;0.45;;
28086;SDS011;15392;48.912;8.380;2022-07-09T08:00:36;0.65;;;0.45;;
28086;SDS011;15392;48.912;8.380;2022-07-09T08:03:08;0.85;;;0.40;;
28086;SDS011;15392;48.912;8.380;2022-07-09T08:05:37;0.60;;;0.60;;
28086;SDS011;15392;48.912;8.380;2022-07-09T08:08:03;0.50;;;0.50;;
28086;SDS011;15392;48.912;8.380;2022-07-09T08:10:29;1.35;;;0.40;;
28086;SDS011;15392;48.912;8.380;2022-07-09T08:12:59;0.73;;;0.47;;
28086;SDS011;15392;48.912;8.380;2022-07-09T08:15:24;0.45;;;0.38;;
28086;SDS011;15392;48.912;8.380;2022-07-09T08:17:50;0.43;;;0.43;;
28086;SDS011;15392;48.912;8.380;2022-07-09T08:20:16;0.57;;;0.57;;
28086;SDS011;15392;48.912;8.380;2022-07-09T08:22:42;1.25;;;0.52;;
28086;SDS011;15392;48.912;8.380;2022-07-09T08:25:08;0.50;;;0.50;;
28086;SDS011;15392;48.912;8.380;2022-07-09T08:27:34;0.55;;;0.50;;
28086;SDS011;15392;48.912;8.380;2022-07-09T08:29:59;0.55;;;0.40;;
28086;SDS011;15392;48.912;8.380;2022-07-09T08:32:25;0.40;;;0.40;;
28086;SDS011;15392;48.912;8.380;2022-07-09T08:34:51;0.40;;;0.40;;
28086;SDS011;15392;48.912;8.380;2022-07-09T08:37:17;0.40;;;0.30;;
28086;SDS011;15392;48.912;8.380;2022-07-09T08:39:42;0.35;;;0.35;;
28086;SDS011;15392;48.912;8.380;2022-07-09T08:42:09;0.68;;;0.40;;
28086;SDS011;15392;48.912;8.380;2022-07-09T08:44:37;0.50;;;0.50;;
28086;SDS011;15392;48.912;8.380;2022-07-09T08:47:04;0.60;;;0.30;;
28086;SDS011;15392;48.912;8.380;2022-07-09T08:49:31;0.30;;;0.30;;
28086;SDS011;15392;48.912;8.380;2022-07-09T08:51:57;0.30;;;0.30;;
28086;SDS011;15392;48.912;8.380;2022-07-09T08:54:26;0.45;;;0.20;;
28086;SDS011;15392;48.912;8.380;2022-07-09T08:56:53;0.60;;;0.40;;
28086;SDS011;15392;48.912;8.380;2022-07-09T08:59:19;0.30;;;0.30;;
28086;SDS011;15392;48.912;8.380;2022-07-09T09:01:45;0.50;;;0.40;;
28086;SDS011;15392;48.912;8.380;2022-07-09T09:04:10;0.20;;;0.20;;
28086;SDS011;15392;48.912;8.380;2022-07-09T09:06:37;0.73;;;0.30;;
28086;SDS011;15392;48.912;8.380;2022-07-09T09:09:06;0.40;;;0.40;;
28086;SDS011;15392;48.912;8.380;2022-07-09T09:11:34;0.40;;;0.40;;
28086;SDS011;15392;48.912;8.380;2022-07-09T09:14:01;0.30;;;0.30;;
28086;SDS011;15392;48.912;8.380;2022-07-09T09:16:28;0.35;;;0.35;;
28086;SDS011;15392;48.912;8.380;2022-07-09T09:18:54;0.35;;;0.35;;
28086;SDS011;15392;48.912;8.380;2022-07-09T09:21:25;0.30;;;0.30;;
28086;SDS011;15392;48.912;8.380;2022-07-09T09:23:52;0.45;;;0.40;;
28086;SDS011;15392;48.912;8.380;2022-07-09T09:33:57;0.20;;;0.20;;
28086;SDS011;15392;48.912;8.380;2022-07-09T09:42:00;0.43;;;0.40;;
28086;SDS011;15392;48.912;8.380;2022-07-09T09:44:32;0.38;;;0.20;;
28086;SDS011;15392;48.912;8.380;2022-07-09T09:47:02;0.20;;;0.20;;
28086;SDS011;15392;48.912;8.380;2022-07-09T09:49:30;0.40;;;0.30;;
28086;SDS011;15392;48.912;8.380;2022-07-09T09:51:57;0.40;;;0.35;;
28086;SDS011;15392;48.912;8.380;2022-07-09T09:54:31;0.40;;;0.30;;
28086;SDS011;15392;48.912;8.380;2022-07-09T09:56:58;0.77;;;0.30;;
28086;SDS011;15392;48.912;8.380;2022-07-09T09:59:25;0.30;;;0.30;;
28086;SDS011;15392;48.912;8.380;2022-07-09T10:01:51;0.10;;;0.10;;
28086;SDS011;15392;48.912;8.380;2022-07-09T10:04:17;0.30;;;0.30;;
28086;SDS011;15392;48.912;8.380;2022-07-09T10:06:44;0.28;;;0.28;;
28086;SDS011;15392;48.912;8.380;2022-07-09T10:09:11;0.30;;;0.30;;
28086;SDS011;15392;48.912;8.380;2022-07-09T10:11:45;0.60;;;0.30;;
28086;SDS011;15392;48.912;8.380;2022-07-09T10:17:12;0.40;;;0.20;;
28086;SDS011;15392;48.912;8.380;2022-07-09T10:22:17;0.28;;;0.20;;
28086;SDS011;15392;48.912;8.380;2022-07-09T10:24:44;0.30;;;0.30;;
28086;SDS011;15392;48.912;8.380;2022-07-09T10:27:11;0.68;;;0.63;;
28086;SDS011;15392;48.912;8.380;2022-07-09T10:35:04;0.30;;;0.20;;
28086;SDS011;15392;48.912;8.380;2022-07-09T10:40:10;0.20;;;0.20;;
28086;SDS011;15392;48.912;8.380;2022-07-09T10:42:39;0.60;;;0.60;;
28086;SDS011;15392;48.912;8.380;2022-07-09T10:45:29;0.10;;;0.10;;
28086;SDS011;15392;48.912;8.380;2022-07-09T10:48:08;0.22;;;0.22;;
28086;SDS011;15392;48.912;8.380;2022-07-09T10:50:44;0.28;;;0.28;;
28086;SDS011;15392;48.912;8.380;2022-07-09T10:53:13;0.15;;;0.15;;
28086;SDS011;15392;48.912;8.380;2022-07-09T10:55:43;0.10;;;0.10;;
28086;SDS011;15392;48.912;8.380;2022-07-09T10:58:18;0.22;;;0.13;;
28086;SDS011;15392;48.912;8.380;2022-07-09T11:00:53;0.20;;;0.20;;
28086;SDS011;15392;48.912;8.380;2022-07-09T11:03:24;0.10;;;0.10;;
28086;SDS011;15392;48.912;8.380;2022-07-09T11:05:54;0.20;;;0.20;;
28086;SDS011;15392;48.912;8.380;2022-07-09T11:08:21;0.03;;;0.03;;
28086;SDS011;15392;48.912;8.380;2022-07-09T11:10:47;0.10;;;0.10;;
28086;SDS011;15392;48.912;8.380;2022-07-09T11:13:13;0.30;;;0.20;;
28086;SDS011;15392;48.912;8.380;2022-07-09T11:15:39;0.32;;;0.20;;
28086;SDS011;15392;48.912;8.380;2022-07-09T11:21:06;0.30;;;0.30;;
28086;SDS011;15392;48.912;8.380;2022-07-09T11:23:25;1.85;;;0.25;;
28086;SDS011;15392;48.912;8.380;2022-07-09T11:25:51;0.10;;;0.10;;
28086;SDS011;15392;48.912;8.380;2022-07-09T11:28:21;0.10;;;0.10;;
28086;SDS011;15392;48.912;8.380;2022-07-09T11:33:25;0.30;;;0.30;;
28086;SDS011;15392;48.912;8.380;2022-07-09T11:35:54;0.22;;;0.20;;
28086;SDS011;15392;48.912;8.380;2022-07-09T11:38:23;0.10;;;0.10;;
28086;SDS011;15392;48.912;8.380;2022-07-09T11:41:06;0.17;;;0.17;;
28086;SDS011;15392;48.912;8.380;2022-07-09T11:43:32;0.32;;;0.30;;
28086;SDS011;15392;48.912;8.380;2022-07-09T11:45:57;0.40;;;0.20;;
28086;SDS011;15392;48.912;8.380;2022-07-09T11:48:23;0.10;;;0.10;;
28086;SDS011;15392;48.912;8.380;2022-07-09T11:50:49;0.28;;;0.20;;
28086;SDS011;15392;48.912;8.380;2022-07-09T11:53:21;0.20;;;0.20;;
28086;SDS011;15392;48.912;8.380;2022-07-09T11:55:59;0.13;;;0.13;;
28086;SDS011;15392;48.912;8.380;2022-07-09T11:58:32;0.08;;;0.08;;
28086;SDS011;15392;48.912;8.380;2022-07-09T12:00:58;0.20;;;0.20;;
28086;SDS011;15392;48.912;8.380;2022-07-09T12:03:35;0.13;;;0.13;;
28086;SDS011;15392;48.912;8.380;2022-07-09T12:06:01;0.20;;;0.20;;
28086;SDS011;15392;48.912;8.380;2022-07-09T12:08:31;0.20;;;0.20;;
28086;SDS011;15392;48.912;8.380;2022-07-09T12:11:00;0.20;;;0.20;;
28086;SDS011;15392;48.912;8.380;2022-07-09T12:13:26;0.10;;;0.10;;
28086;SDS011;15392;48.912;8.380;2022-07-09T12:15:51;0.30;;;0.28;;
28086;SDS011;15392;48.912;8.380;2022-07-09T12:18:17;0.20;;;0.20;;
28086;SDS011;15392;48.912;8.380;2022-07-09T12:20:43;0.17;;;0.17;;
28086;SDS011;15392;48.912;8.380;2022-07-09T12:23:09;0.20;;;0.20;;
28086;SDS011;15392;48.912;8.380;2022-07-09T12:25:35;0.20;;;0.10;;
28086;SDS011;15392;48.912;8.380;2022-07-09T12:28:00;0.30;;;0.30;;
28086;SDS011;15392;48.912;8.380;2022-07-09T12:30:26;0.30;;;0.30;;
28086;SDS011;15392;48.912;8.380;2022-07-09T12:32:58;0.17;;;0.17;;
28086;SDS011;15392;48.912;8.380;2022-07-09T12:35:24;0.32;;;0.20;;
28086;SDS011;15392;48.912;8.380;2022-07-09T12:37:52;0.20;;;0.20;;
28086;SDS011;15392;48.912;8.380;2022-07-09T12:40:18;0.20;;;0.10;;
28086;SDS011;15392;48.912;8.380;2022-07-09T12:42:44;0.10;;;0.10;;
28086;SDS011;15392;48.912;8.380;2022-07-09T12:45:09;0.40;;;0.20;;
28086;SDS011;15392;48.912;8.380;2022-07-09T12:47:37;0.20;;;0.20;;
28086;SDS011;15392;48.912;8.380;2022-07-09T12:50:03;0.30;;;0.20;;
28086;SDS011;15392;48.912;8.380;2022-07-09T12:52:34;0.20;;;0.20;;
28086;SDS011;15392;48.912;8.380;2022-07-09T12:55:00;1.40;;;0.20;;
28086;SDS011;15392;48.912;8.380;2022-07-09T12:57:27;0.20;;;0.20;;
28086;SDS011;15392;48.912;8.380;2022-07-09T12:59:53;0.20;;;0.20;;
28086;SDS011;15392;48.912;8.380;2022-07-09T13:02:19;0.25;;;0.25;;
28086;SDS011;15392;48.912;8.380;2022-07-09T13:04:45;0.15;;;0.15;;
28086;SDS011;15392;48.912;8.380;2022-07-09T13:07:13;0.20;;;0.20;;
28086;SDS011;15392;48.912;8.380;2022-07-09T13:09:39;0.25;;;0.20;;
28086;SDS011;15392;48.912;8.380;2022-07-09T13:12:05;0.20;;;0.20;;
28086;SDS011;15392;48.912;8.380;2022-07-09T13:14:31;0.10;;;0.10;;
28086;SDS011;15392;48.912;8.380;2022-07-09T13:16:58;0.20;;;0.20;;
28086;SDS011;15392;48.912;8.380;2022-07-09T13:19:24;0.45;;;0.25;;
28086;SDS011;15392;48.912;8.380;2022-07-09T13:21:49;0.77;;;0.77;;
28086;SDS011;15392;48.912;8.380;2022-07-09T13:24:15;0.50;;;0.50;;
28086;SDS011;15392;48.912;8.380;2022-07-09T13:26:41;0.20;;;0.20;;
28086;SDS011;15392;48.912;8.380;2022-07-09T13:29:16;0.30;;;0.10;;
28086;SDS011;15392;48.912;8.380;2022-07-09T13:31:42;0.10;;;0.10;;
28086;SDS011;15392;48.912;8.380;2022-07-09T13:34:08;0.10;;;0.10;;
28086;SDS011;15392;48.912;8.380;2022-07-09T13:36:45;0.10;;;0.00;;
28086;SDS011;15392;48.912;8.380;2022-07-09T13:39:19;0.10;;;0.10;;
28086;SDS011;15392;48.912;8.380;2022-07-09T13:41:45;0.10;;;0.10;;
28086;SDS011;15392;48.912;8.380;2022-07-09T13:44:11;0.10;;;0.10;;
28086;SDS011;15392;48.912;8.380;2022-07-09T13:46:38;0.40;;;0.10;;
28086;SDS011;15392;48.912;8.380;2022-07-09T13:49:04;0.25;;;0.20;;
28086;SDS011;15392;48.912;8.380;2022-07-09T13:51:30;0.20;;;0.20;;
28086;SDS011;15392;48.912;8.380;2022-07-09T13:53:58;0.20;;;0.20;;
28086;SDS011;15392;48.912;8.380;2022-07-09T13:56:30;0.13;;;0.13;;
28086;SDS011;15392;48.912;8.380;2022-07-09T13:58:56;1.80;;;0.20;;
28086;SDS011;15392;48.912;8.380;2022-07-09T14:01:22;0.15;;;0.15;;
28086;SDS011;15392;48.912;8.380;2022-07-09T14:03:47;0.10;;;0.10;;
28086;SDS011;15392;48.912;8.380;2022-07-09T14:06:13;0.10;;;0.10;;
28086;SDS011;15392;48.912;8.380;2022-07-09T14:08:39;0.20;;;0.17;;
28086;SDS011;15392;48.912;8.380;2022-07-09T14:11:05;0.25;;;0.25;;
28086;SDS011;15392;48.912;8.380;2022-07-09T14:13:30;0.30;;;0.30;;
28086;SDS011;15392;48.912;8.380;2022-07-09T14:15:57;1.00;;;0.20;;
28086;SDS011;15392;48.912;8.380;2022-07-09T14:18:24;0.22;;;0.22;;
28086;SDS011;15392;48.912;8.380;2022-07-09T14:20:49;0.15;;;0.10;;
28086;SDS011;15392;48.912;8.380;2022-07-09T14:23:16;0.05;;;0.03;;
28086;SDS011;15392;48.912;8.380;2022-07-09T14:25:42;0.17;;;0.10;;
28086;SDS011;15392;48.912;8.380;2022-07-09T14:28:08;0.10;;;0.10;;
28086;SDS011;15392;48.912;8.380;2022-07-09T14:30:34;0.30;;;0.13;;
28086;SDS011;15392;48.912;8.380;2022-07-09T14:33:00;0.20;;;0.20;;
28086;SDS011;15392;48.912;8.380;2022-07-09T14:35:29;0.10;;;0.10;;
28086;SDS011;15392;48.912;8.380;2022-07-09T14:37:58;0.15;;;0.10;;
28086;SDS011;15392;48.912;8.380;2022-07-09T14:40:25;0.10;;;0.10;;
28086;SDS011;15392;48.912;8.380;2022-07-09T14:42:51;0.20;;;0.20;;
28086;SDS011;15392;48.912;8.380;2022-07-09T14:45:17;0.10;;;0.10;;
28086;SDS011;15392;48.912;8.380;2022-07-09T14:47:44;0.47;;;0.13;;
28086;SDS011;15392;48.912;8.380;2022-07-09T14:50:10;0.20;;;0.20;;
28086;SDS011;15392;48.912;8.380;2022-07-09T14:52:36;0.32;;;0.22;;
28086;SDS011;15392;48.912;8.380;2022-07-09T14:55:02;0.10;;;0.10;;
28086;SDS011;15392;48.912;8.380;2022-07-09T14:57:29;0.22;;;0.22;;
28086;SDS011;15392;48.912;8.380;2022-07-09T14:59:55;0.30;;;0.20;;
28086;SDS011;15392;48.912;8.380;2022-07-09T15:02:21;0.28;;;0.28;;
28086;SDS011;15392;48.912;8.380;2022-07-09T15:04:50;0.10;;;0.10;;
28086;SDS011;15392;48.912;8.380;2022-07-09T15:07:16;0.28;;;0.20;;
28086;SDS011;15392;48.912;8.380;2022-07-09T15:09:45;0.40;;;0.20;;
28086;SDS011;15392;48.912;8.380;2022-07-09T15:12:11;2.28;;;0.10;;
28086;SDS011;15392;48.912;8.380;2022-07-09T15:14:36;0.20;;;0.20;;
28086;SDS011;15392;48.912;8.380;2022-07-09T15:17:03;1.05;;;0.10;;
28086;SDS011;15392;48.912;8.380;2022-07-09T15:19:32;0.30;;;0.10;;
28086;SDS011;15392;48.912;8.380;2022-07-09T15:22:03;0.13;;;0.10;;
28086;SDS011;15392;48.912;8.380;2022-07-09T15:24:38;0.40;;;0.30;;